sensor_id;sensor_type;location;lat;lon;timestamp;temperature;humidity
46217;DHT22;47258;59.424;13.482;2023-05-14T00:01:56;24.50;56.60
46217;DHT22;47258;59.424;13.482;2023-05-14T00:04:23;24.50;56.60
46217;DHT22;47258;59.424;13.482;2023-05-14T00:06:52;24.50;56.60
46217;DHT22;47258;59.424;13.482;2023-05-14T00:09:19;24.50;56.60
46217;DHT22;47258;59.424;13.482;2023-05-14T00:11:46;24.50;56.60
46217;DHT22;47258;59.424;13.482;2023-05-14T00:14:14;24.50;56.70
46217;DHT22;47258;59.424;13.482;2023-05-14T00:16:41;24.50;56.70
46217;DHT22;47258;59.424;13.482;2023-05-14T00:19:08;24.40;56.70
46217;DHT22;47258;59.424;13.482;2023-05-14T00:21:35;24.40;56.70
46217;DHT22;47258;59.424;13.482;2023-05-14T00:24:04;24.40;56.70
46217;DHT22;47258;59.424;13.482;2023-05-14T00:26:31;24.40;56.70
46217;DHT22;47258;59.424;13.482;2023-05-14T00:28:59;24.30;56.60
46217;DHT22;47258;59.424;13.482;2023-05-14T00:31:26;24.30;56.60
46217;DHT22;47258;59.424;13.482;2023-05-14T00:33:53;24.30;56.60
46217;DHT22;47258;59.424;13.482;2023-05-14T00:36:21;24.30;56.70
46217;DHT22;47258;59.424;13.482;2023-05-14T00:38:48;24.30;56.70
46217;DHT22;47258;59.424;13.482;2023-05-14T00:41:17;24.30;56.90
46217;DHT22;47258;59.424;13.482;2023-05-14T00:43:44;24.30;57.00
46217;DHT22;47258;59.424;13.482;2023-05-14T00:46:11;24.20;56.90
46217;DHT22;47258;59.424;13.482;2023-05-14T00:48:39;24.20;56.90
46217;DHT22;47258;59.424;13.482;2023-05-14T00:51:07;24.20;57.00
46217;DHT22;47258;59.424;13.482;2023-05-14T00:53:35;24.20;56.90
46217;DHT22;47258;59.424;13.482;2023-05-14T00:56:03;24.20;57.00
46217;DHT22;47258;59.424;13.482;2023-05-14T00:58:32;24.20;56.90
46217;DHT22;47258;59.424;13.482;2023-05-14T01:00:59;24.20;57.00
46217;DHT22;47258;59.424;13.482;2023-05-14T01:03:27;24.10;56.90
46217;DHT22;47258;59.424;13.482;2023-05-14T01:06:13;24.10;56.90
46217;DHT22;47258;59.424;13.482;2023-05-14T01:09:02;24.10;56.90
46217;DHT22;47258;59.424;13.482;2023-05-14T01:11:35;24.10;56.90
46217;DHT22;47258;59.424;13.482;2023-05-14T01:14:27;24.10;56.90
46217;DHT22;47258;59.424;13.482;2023-05-14T01:17:01;24.10;56.90
46217;DHT22;47258;59.424;13.482;2023-05-14T01:19:36;24.00;56.90
46217;DHT22;47258;59.424;13.482;2023-05-14T01:22:07;24.00;57.00
46217;DHT22;47258;59.424;13.482;2023-05-14T01:24:34;24.00;56.90
46217;DHT22;47258;59.424;13.482;2023-05-14T01:27:07;24.00;56.30
46217;DHT22;47258;59.424;13.482;2023-05-14T01:29:37;24.00;56.80
46217;DHT22;47258;59.424;13.482;2023-05-14T01:32:07;23.90;56.90
46217;DHT22;47258;59.424;13.482;2023-05-14T01:34:36;24.00;57.00
46217;DHT22;47258;59.424;13.482;2023-05-14T01:37:06;23.90;56.90
46217;DHT22;47258;59.424;13.482;2023-05-14T01:39:36;23.90;57.00
46217;DHT22;47258;59.424;13.482;2023-05-14T01:42:04;23.90;56.90
46217;DHT22;47258;59.424;13.482;2023-05-14T01:44:33;23.90;56.90
46217;DHT22;47258;59.424;13.482;2023-05-14T01:47:03;23.90;56.90
46217;DHT22;47258;59.424;13.482;2023-05-14T01:49:30;23.90;56.90
46217;DHT22;47258;59.424;13.482;2023-05-14T01:51:57;23.80;56.90
46217;DHT22;47258;59.424;13.482;2023-05-14T01:54:26;23.90;56.90
46217;DHT22;47258;59.424;13.482;2023-05-14T01:56:53;23.80;56.90
46217;DHT22;47258;59.424;13.482;2023-05-14T01:59:21;23.80;56.90
46217;DHT22;47258;59.424;13.482;2023-05-14T02:01:48;23.80;57.10
46217;DHT22;47258;59.424;13.482;2023-05-14T02:04:16;23.80;57.10
46217;DHT22;47258;59.424;13.482;2023-05-14T02:06:43;23.80;57.30
46217;DHT22;47258;59.424;13.482;2023-05-14T02:09:11;23.70;57.30
46217;DHT22;47258;59.424;13.482;2023-05-14T02:11:39;23.70;57.30
46217;DHT22;47258;59.424;13.482;2023-05-14T02:14:07;23.70;57.30
46217;DHT22;47258;59.424;13.482;2023-05-14T02:16:34;23.70;57.30
46217;DHT22;47258;59.424;13.482;2023-05-14T02:19:02;23.70;57.20
46217;DHT22;47258;59.424;13.482;2023-05-14T02:21:29;23.70;57.40
46217;DHT22;47258;59.424;13.482;2023-05-14T02:23:56;23.70;57.50
46217;DHT22;47258;59.424;13.482;2023-05-14T02:26:23;23.70;57.40
46217;DHT22;47258;59.424;13.482;2023-05-14T02:28:52;23.60;57.40
46217;DHT22;47258;59.424;13.482;2023-05-14T02:31:19;23.70;57.40
46217;DHT22;47258;59.424;13.482;2023-05-14T02:33:47;23.60;57.20
46217;DHT22;47258;59.424;13.482;2023-05-14T02:44:01;23.60;57.20
46217;DHT22;47258;59.424;13.482;2023-05-14T02:46:29;23.60;57.20
46217;DHT22;47258;59.424;13.482;2023-05-14T02:48:57;23.60;57.20
46217;DHT22;47258;59.424;13.482;2023-05-14T02:51:24;23.60;57.40
46217;DHT22;47258;59.424;13.482;2023-05-14T02:53:51;23.50;57.40
46217;DHT22;47258;59.424;13.482;2023-05-14T02:56:19;23.50;57.40
46217;DHT22;47258;59.424;13.482;2023-05-14T02:58:46;23.50;58.00
46217;DHT22;47258;59.424;13.482;2023-05-14T03:01:15;23.50;57.50
46217;DHT22;47258;59.424;13.482;2023-05-14T03:03:43;23.50;57.60
46217;DHT22;47258;59.424;13.482;2023-05-14T03:06:10;23.50;57.70
46217;DHT22;47258;59.424;13.482;2023-05-14T03:08:38;23.50;57.90
46217;DHT22;47258;59.424;13.482;2023-05-14T03:11:06;23.50;58.00
46217;DHT22;47258;59.424;13.482;2023-05-14T03:13:33;23.40;58.10
46217;DHT22;47258;59.424;13.482;2023-05-14T03:16:01;23.40;58.20
46217;DHT22;47258;59.424;13.482;2023-05-14T03:18:31;23.40;58.40
46217;DHT22;47258;59.424;13.482;2023-05-14T03:20:59;23.40;58.50
46217;DHT22;47258;59.424;13.482;2023-05-14T03:23:26;23.40;58.50
46217;DHT22;47258;59.424;13.482;2023-05-14T03:25:56;23.40;58.50
46217;DHT22;47258;59.424;13.482;2023-05-14T03:28:24;23.40;58.50
46217;DHT22;47258;59.424;13.482;2023-05-14T03:30:52;23.40;58.50
46217;DHT22;47258;59.424;13.482;2023-05-14T03:33:19;23.40;58.40
46217;DHT22;47258;59.424;13.482;2023-05-14T03:35:47;23.40;58.40
46217;DHT22;47258;59.424;13.482;2023-05-14T03:38:15;23.40;58.50
46217;DHT22;47258;59.424;13.482;2023-05-14T03:40:43;23.40;58.40
46217;DHT22;47258;59.424;13.482;2023-05-14T03:43:10;23.40;58.40
46217;DHT22;47258;59.424;13.482;2023-05-14T03:45:38;23.40;58.40
46217;DHT22;47258;59.424;13.482;2023-05-14T03:48:06;23.40;58.50
46217;DHT22;47258;59.424;13.482;2023-05-14T03:50:34;23.30;58.30
46217;DHT22;47258;59.424;13.482;2023-05-14T03:53:02;23.30;58.40
46217;DHT22;47258;59.424;13.482;2023-05-14T03:55:30;23.40;58.40
46217;DHT22;47258;59.424;13.482;2023-05-14T03:57:57;23.30;58.20
46217;DHT22;47258;59.424;13.482;2023-05-14T04:00:24;23.30;58.20
46217;DHT22;47258;59.424;13.482;2023-05-14T04:02:51;23.30;58.10
46217;DHT22;47258;59.424;13.482;2023-05-14T04:05:18;23.30;58.20
46217;DHT22;47258;59.424;13.482;2023-05-14T04:07:45;23.30;58.30
46217;DHT22;47258;59.424;13.482;2023-05-14T04:10:14;23.30;58.30
46217;DHT22;47258;59.424;13.482;2023-05-14T04:12:41;23.30;58.40
46217;DHT22;47258;59.424;13.482;2023-05-14T04:15:10;23.30;58.40
46217;DHT22;47258;59.424;13.482;2023-05-14T04:17:37;23.30;58.70
46217;DHT22;47258;59.424;13.482;2023-05-14T04:20:06;23.30;58.60
46217;DHT22;47258;59.424;13.482;2023-05-14T04:22:33;23.30;58.70
46217;DHT22;47258;59.424;13.482;2023-05-14T04:25:00;23.30;58.70
46217;DHT22;47258;59.424;13.482;2023-05-14T04:27:29;23.30;58.80
46217;DHT22;47258;59.424;13.482;2023-05-14T04:29:56;23.30;58.80
46217;DHT22;47258;59.424;13.482;2023-05-14T04:32:23;23.30;58.70
46217;DHT22;47258;59.424;13.482;2023-05-14T04:34:50;23.20;58.70
46217;DHT22;47258;59.424;13.482;2023-05-14T04:37:18;23.20;58.60
46217;DHT22;47258;59.424;13.482;2023-05-14T04:39:45;23.20;58.60
46217;DHT22;47258;59.424;13.482;2023-05-14T04:42:12;23.20;58.40
46217;DHT22;47258;59.424;13.482;2023-05-14T04:44:41;23.20;58.50
46217;DHT22;47258;59.424;13.482;2023-05-14T04:47:08;23.20;58.40
46217;DHT22;47258;59.424;13.482;2023-05-14T04:49:35;23.20;58.40
46217;DHT22;47258;59.424;13.482;2023-05-14T04:52:03;23.20;58.30
46217;DHT22;47258;59.424;13.482;2023-05-14T04:54:31;23.20;58.30
46217;DHT22;47258;59.424;13.482;2023-05-14T04:56:58;23.20;58.30
46217;DHT22;47258;59.424;13.482;2023-05-14T04:59:27;23.20;58.20
46217;DHT22;47258;59.424;13.482;2023-05-14T05:01:56;23.20;57.80
46217;DHT22;47258;59.424;13.482;2023-05-14T05:04:24;23.20;58.10
46217;DHT22;47258;59.424;13.482;2023-05-14T05:06:51;23.20;58.10
46217;DHT22;47258;59.424;13.482;2023-05-14T05:09:19;23.20;58.20
46217;DHT22;47258;59.424;13.482;2023-05-14T05:11:46;23.20;58.10
46217;DHT22;47258;59.424;13.482;2023-05-14T05:14:13;23.20;58.10
46217;DHT22;47258;59.424;13.482;2023-05-14T05:16:40;23.20;58.10
46217;DHT22;47258;59.424;13.482;2023-05-14T05:19:09;23.20;58.10
46217;DHT22;47258;59.424;13.482;2023-05-14T05:21:37;23.20;58.20
46217;DHT22;47258;59.424;13.482;2023-05-14T05:24:06;23.20;58.10
46217;DHT22;47258;59.424;13.482;2023-05-14T05:26:33;23.20;58.10
46217;DHT22;47258;59.424;13.482;2023-05-14T05:29:01;23.20;58.10
46217;DHT22;47258;59.424;13.482;2023-05-14T05:31:29;23.20;58.70
46217;DHT22;47258;59.424;13.482;2023-05-14T05:33:57;23.30;58.10
46217;DHT22;47258;59.424;13.482;2023-05-14T05:36:26;23.30;58.20
46217;DHT22;47258;59.424;13.482;2023-05-14T05:38:54;23.30;58.20
46217;DHT22;47258;59.424;13.482;2023-05-14T05:41:21;23.30;58.30
46217;DHT22;47258;59.424;13.482;2023-05-14T05:43:49;23.30;58.40
46217;DHT22;47258;59.424;13.482;2023-05-14T05:46:16;23.30;58.30
46217;DHT22;47258;59.424;13.482;2023-05-14T05:48:43;23.30;58.30
46217;DHT22;47258;59.424;13.482;2023-05-14T05:51:11;23.30;58.30
46217;DHT22;47258;59.424;13.482;2023-05-14T05:53:39;23.30;58.30
46217;DHT22;47258;59.424;13.482;2023-05-14T05:56:07;23.30;58.30
46217;DHT22;47258;59.424;13.482;2023-05-14T05:58:34;23.40;58.30
46217;DHT22;47258;59.424;13.482;2023-05-14T06:01:01;23.40;58.20
46217;DHT22;47258;59.424;13.482;2023-05-14T06:03:29;23.40;58.20
46217;DHT22;47258;59.424;13.482;2023-05-14T06:05:56;23.40;58.00
46217;DHT22;47258;59.424;13.482;2023-05-14T06:08:23;23.50;58.10
46217;DHT22;47258;59.424;13.482;2023-05-14T06:10:54;23.50;58.10
46217;DHT22;47258;59.424;13.482;2023-05-14T06:13:21;23.50;58.00
46217;DHT22;47258;59.424;13.482;2023-05-14T06:15:48;23.50;57.90
46217;DHT22;47258;59.424;13.482;2023-05-14T06:18:19;23.60;57.90
46217;DHT22;47258;59.424;13.482;2023-05-14T06:20:46;23.60;57.80
46217;DHT22;47258;59.424;13.482;2023-05-14T06:23:15;23.70;57.80
46217;DHT22;47258;59.424;13.482;2023-05-14T06:25:42;23.70;57.70
46217;DHT22;47258;59.424;13.482;2023-05-14T06:28:11;23.80;57.80
46217;DHT22;47258;59.424;13.482;2023-05-14T06:30:39;23.80;58.00
46217;DHT22;47258;59.424;13.482;2023-05-14T06:33:06;23.90;58.00
46217;DHT22;47258;59.424;13.482;2023-05-14T06:35:33;23.90;58.10
46217;DHT22;47258;59.424;13.482;2023-05-14T06:38:01;23.90;57.90
46217;DHT22;47258;59.424;13.482;2023-05-14T06:40:29;24.00;57.80
46217;DHT22;47258;59.424;13.482;2023-05-14T06:42:57;24.10;57.70
46217;DHT22;47258;59.424;13.482;2023-05-14T06:45:26;24.10;57.50
46217;DHT22;47258;59.424;13.482;2023-05-14T06:47:54;24.10;57.60
46217;DHT22;47258;59.424;13.482;2023-05-14T06:50:21;24.20;56.90
46217;DHT22;47258;59.424;13.482;2023-05-14T06:52:49;24.20;56.20
46217;DHT22;47258;59.424;13.482;2023-05-14T06:55:18;24.20;55.90
46217;DHT22;47258;59.424;13.482;2023-05-14T06:57:47;24.30;56.00
46217;DHT22;47258;59.424;13.482;2023-05-14T07:00:16;24.30;56.90
46217;DHT22;47258;59.424;13.482;2023-05-14T07:02:45;24.30;56.20
46217;DHT22;47258;59.424;13.482;2023-05-14T07:05:12;24.30;56.40
46217;DHT22;47258;59.424;13.482;2023-05-14T07:07:40;24.40;56.30
46217;DHT22;47258;59.424;13.482;2023-05-14T07:10:07;24.40;56.20
46217;DHT22;47258;59.424;13.482;2023-05-14T07:12:34;24.40;56.50
46217;DHT22;47258;59.424;13.482;2023-05-14T07:15:02;24.40;56.80
46217;DHT22;47258;59.424;13.482;2023-05-14T07:17:29;24.40;57.10
46217;DHT22;47258;59.424;13.482;2023-05-14T07:19:58;24.50;57.30
46217;DHT22;47258;59.424;13.482;2023-05-14T07:22:25;24.50;57.50
46217;DHT22;47258;59.424;13.482;2023-05-14T07:24:52;24.50;57.60
46217;DHT22;47258;59.424;13.482;2023-05-14T07:27:19;24.50;57.90
46217;DHT22;47258;59.424;13.482;2023-05-14T07:29:48;24.50;57.90
46217;DHT22;47258;59.424;13.482;2023-05-14T07:32:15;24.50;58.00
46217;DHT22;47258;59.424;13.482;2023-05-14T07:34:42;24.50;58.10
46217;DHT22;47258;59.424;13.482;2023-05-14T07:37:11;24.50;58.10
46217;DHT22;47258;59.424;13.482;2023-05-14T07:39:38;24.50;58.20
46217;DHT22;47258;59.424;13.482;2023-05-14T07:42:06;24.60;58.30
46217;DHT22;47258;59.424;13.482;2023-05-14T07:44:33;24.60;58.30
46217;DHT22;47258;59.424;13.482;2023-05-14T07:47:00;24.60;58.30
46217;DHT22;47258;59.424;13.482;2023-05-14T07:49:28;24.60;58.10
46217;DHT22;47258;59.424;13.482;2023-05-14T07:51:56;24.60;57.90
46217;DHT22;47258;59.424;13.482;2023-05-14T07:54:24;24.70;57.80
46217;DHT22;47258;59.424;13.482;2023-05-14T07:56:54;24.70;57.60
46217;DHT22;47258;59.424;13.482;2023-05-14T07:59:22;24.70;57.50
46217;DHT22;47258;59.424;13.482;2023-05-14T08:01:49;24.70;57.60
46217;DHT22;47258;59.424;13.482;2023-05-14T08:04:16;24.80;58.00
46217;DHT22;47258;59.424;13.482;2023-05-14T08:06:44;24.80;57.70
46217;DHT22;47258;59.424;13.482;2023-05-14T08:09:11;24.80;57.50
46217;DHT22;47258;59.424;13.482;2023-05-14T08:11:40;24.80;58.00
46217;DHT22;47258;59.424;13.482;2023-05-14T08:14:07;24.80;57.40
46217;DHT22;47258;59.424;13.482;2023-05-14T08:16:34;24.90;57.40
46217;DHT22;47258;59.424;13.482;2023-05-14T08:19:02;24.90;57.40
46217;DHT22;47258;59.424;13.482;2023-05-14T08:21:29;24.90;57.30
46217;DHT22;47258;59.424;13.482;2023-05-14T08:23:57;24.90;57.50
46217;DHT22;47258;59.424;13.482;2023-05-14T08:26:24;24.90;57.60
46217;DHT22;47258;59.424;13.482;2023-05-14T08:28:53;24.90;57.40
46217;DHT22;47258;59.424;13.482;2023-05-14T08:31:20;25.00;57.30
46217;DHT22;47258;59.424;13.482;2023-05-14T08:33:48;25.00;57.90
46217;DHT22;47258;59.424;13.482;2023-05-14T08:36:15;25.00;58.80
46217;DHT22;47258;59.424;13.482;2023-05-14T08:38:42;25.00;59.30
46217;DHT22;47258;59.424;13.482;2023-05-14T08:41:12;25.00;59.50
46217;DHT22;47258;59.424;13.482;2023-05-14T08:44:07;25.00;59.70
46217;DHT22;47258;59.424;13.482;2023-05-14T08:47:00;25.00;59.60
46217;DHT22;47258;59.424;13.482;2023-05-14T08:49:41;25.00;59.60
46217;DHT22;47258;59.424;13.482;2023-05-14T08:52:27;25.00;59.70
46217;DHT22;47258;59.424;13.482;2023-05-14T08:55:25;25.00;59.40
46217;DHT22;47258;59.424;13.482;2023-05-14T08:58:22;25.00;58.50
46217;DHT22;47258;59.424;13.482;2023-05-14T09:01:27;25.10;58.10
46217;DHT22;47258;59.424;13.482;2023-05-14T09:04:04;25.10;57.90
46217;DHT22;47258;59.424;13.482;2023-05-14T09:06:50;25.10;57.80
46217;DHT22;47258;59.424;13.482;2023-05-14T09:09:32;25.10;57.80
46217;DHT22;47258;59.424;13.482;2023-05-14T09:12:05;25.10;57.60
46217;DHT22;47258;59.424;13.482;2023-05-14T09:14:50;25.20;57.70
46217;DHT22;47258;59.424;13.482;2023-05-14T09:17:48;25.20;57.50
46217;DHT22;47258;59.424;13.482;2023-05-14T09:20:36;25.20;57.80
46217;DHT22;47258;59.424;13.482;2023-05-14T09:23:25;25.20;57.70
46217;DHT22;47258;59.424;13.482;2023-05-14T09:26:31;25.30;57.90
46217;DHT22;47258;59.424;13.482;2023-05-14T09:29:20;25.30;57.80
46217;DHT22;47258;59.424;13.482;2023-05-14T09:32:05;25.30;58.00
46217;DHT22;47258;59.424;13.482;2023-05-14T09:35:17;25.30;57.80
46217;DHT22;47258;59.424;13.482;2023-05-14T09:38:09;25.30;57.70
46217;DHT22;47258;59.424;13.482;2023-05-14T09:41:10;25.40;57.50
46217;DHT22;47258;59.424;13.482;2023-05-14T09:43:55;25.40;57.40
46217;DHT22;47258;59.424;13.482;2023-05-14T09:46:42;25.40;57.00
46217;DHT22;47258;59.424;13.482;2023-05-14T09:49:35;25.40;56.50
46217;DHT22;47258;59.424;13.482;2023-05-14T09:52:31;25.40;56.20
46217;DHT22;47258;59.424;13.482;2023-05-14T09:55:23;25.50;56.30
46217;DHT22;47258;59.424;13.482;2023-05-14T09:58:14;25.50;56.60
46217;DHT22;47258;59.424;13.482;2023-05-14T10:00:46;25.50;56.50
46217;DHT22;47258;59.424;13.482;2023-05-14T10:03:21;25.50;56.10
46217;DHT22;47258;59.424;13.482;2023-05-14T10:06:08;25.50;56.00
46217;DHT22;47258;59.424;13.482;2023-05-14T10:09:00;25.50;55.70
46217;DHT22;47258;59.424;13.482;2023-05-14T10:11:46;25.50;55.20
46217;DHT22;47258;59.424;13.482;2023-05-14T10:14:37;25.50;54.70
46217;DHT22;47258;59.424;13.482;2023-05-14T10:17:39;25.50;54.70
46217;DHT22;47258;59.424;13.482;2023-05-14T10:20:37;25.50;55.30
46217;DHT22;47258;59.424;13.482;2023-05-14T10:23:37;25.50;55.00
46217;DHT22;47258;59.424;13.482;2023-05-14T10:26:37;25.50;54.30
46217;DHT22;47258;59.424;13.482;2023-05-14T10:29:18;25.50;54.10
46217;DHT22;47258;59.424;13.482;2023-05-14T10:31:57;25.50;54.00
46217;DHT22;47258;59.424;13.482;2023-05-14T10:34:46;25.50;53.40
46217;DHT22;47258;59.424;13.482;2023-05-14T10:37:38;25.50;53.60
46217;DHT22;47258;59.424;13.482;2023-05-14T10:40:32;25.50;53.90
46217;DHT22;47258;59.424;13.482;2023-05-14T10:43:44;25.50;54.00
46217;DHT22;47258;59.424;13.482;2023-05-14T10:47:00;25.50;53.70
46217;DHT22;47258;59.424;13.482;2023-05-14T10:49:34;25.50;53.80
46217;DHT22;47258;59.424;13.482;2023-05-14T10:52:09;25.50;53.90
46217;DHT22;47258;59.424;13.482;2023-05-14T10:54:51;25.50;53.80
46217;DHT22;47258;59.424;13.482;2023-05-14T10:57:34;25.50;53.50
46217;DHT22;47258;59.424;13.482;2023-05-14T11:00:27;25.50;53.50
46217;DHT22;47258;59.424;13.482;2023-05-14T11:03:13;25.50;53.50
46217;DHT22;47258;59.424;13.482;2023-05-14T11:06:06;25.50;53.40
46217;DHT22;47258;59.424;13.482;2023-05-14T11:08:52;25.50;53.30
46217;DHT22;47258;59.424;13.482;2023-05-14T11:11:35;25.50;53.20
46217;DHT22;47258;59.424;13.482;2023-05-14T11:14:15;25.50;53.80
46217;DHT22;47258;59.424;13.482;2023-05-14T11:17:07;25.50;53.00
46217;DHT22;47258;59.424;13.482;2023-05-14T11:19:52;25.50;52.60
46217;DHT22;47258;59.424;13.482;2023-05-14T11:22:33;25.50;52.40
46217;DHT22;47258;59.424;13.482;2023-05-14T11:25:14;25.50;52.20
46217;DHT22;47258;59.424;13.482;2023-05-14T11:27:49;25.50;51.60
46217;DHT22;47258;59.424;13.482;2023-05-14T11:30:36;25.50;51.40
46217;DHT22;47258;59.424;13.482;2023-05-14T11:33:24;25.50;51.50
46217;DHT22;47258;59.424;13.482;2023-05-14T11:36:15;25.50;51.00
46217;DHT22;47258;59.424;13.482;2023-05-14T11:38:48;25.50;50.90
46217;DHT22;47258;59.424;13.482;2023-05-14T11:41:31;25.50;51.00
46217;DHT22;47258;59.424;13.482;2023-05-14T11:44:22;25.50;51.00
46217;DHT22;47258;59.424;13.482;2023-05-14T11:46:56;25.50;51.30
46217;DHT22;47258;59.424;13.482;2023-05-14T11:49:53;25.50;51.50
46217;DHT22;47258;59.424;13.482;2023-05-14T11:52:30;25.50;51.60
46217;DHT22;47258;59.424;13.482;2023-05-14T11:55:22;25.50;52.00
46217;DHT22;47258;59.424;13.482;2023-05-14T11:58:01;25.50;51.80
46217;DHT22;47258;59.424;13.482;2023-05-14T12:00:36;25.50;51.80
46217;DHT22;47258;59.424;13.482;2023-05-14T12:03:15;25.50;51.70
46217;DHT22;47258;59.424;13.482;2023-05-14T12:06:07;25.50;51.70
46217;DHT22;47258;59.424;13.482;2023-05-14T12:08:46;25.50;51.50
46217;DHT22;47258;59.424;13.482;2023-05-14T12:11:22;25.50;51.60
46217;DHT22;47258;59.424;13.482;2023-05-14T12:14:11;25.50;51.50
46217;DHT22;47258;59.424;13.482;2023-05-14T12:16:45;25.60;51.50
46217;DHT22;47258;59.424;13.482;2023-05-14T12:19:23;25.50;51.40
46217;DHT22;47258;59.424;13.482;2023-05-14T12:22:14;25.50;51.50
46217;DHT22;47258;59.424;13.482;2023-05-14T12:24:53;25.50;51.70
46217;DHT22;47258;59.424;13.482;2023-05-14T12:27:27;25.50;51.50
46217;DHT22;47258;59.424;13.482;2023-05-14T12:30:01;25.50;51.30
46217;DHT22;47258;59.424;13.482;2023-05-14T12:32:41;25.50;51.50
46217;DHT22;47258;59.424;13.482;2023-05-14T12:35:20;25.60;51.50
46217;DHT22;47258;59.424;13.482;2023-05-14T12:38:16;25.50;51.40
46217;DHT22;47258;59.424;13.482;2023-05-14T12:40:54;25.60;51.20
46217;DHT22;47258;59.424;13.482;2023-05-14T12:43:27;25.60;50.90
46217;DHT22;47258;59.424;13.482;2023-05-14T12:46:10;25.50;50.40
46217;DHT22;47258;59.424;13.482;2023-05-14T12:48:53;25.60;50.30
46217;DHT22;47258;59.424;13.482;2023-05-14T12:51:33;25.50;50.50
46217;DHT22;47258;59.424;13.482;2023-05-14T12:54:22;25.50;50.50
46217;DHT22;47258;59.424;13.482;2023-05-14T12:57:15;25.50;50.70
46217;DHT22;47258;59.424;13.482;2023-05-14T13:00:12;25.60;51.00
46217;DHT22;47258;59.424;13.482;2023-05-14T13:03:04;25.50;50.80
46217;DHT22;47258;59.424;13.482;2023-05-14T13:05:50;25.50;50.70
46217;DHT22;47258;59.424;13.482;2023-05-14T13:08:30;25.50;50.50
46217;DHT22;47258;59.424;13.482;2023-05-14T13:11:18;25.50;50.30
46217;DHT22;47258;59.424;13.482;2023-05-14T13:13:57;25.50;50.20
46217;DHT22;47258;59.424;13.482;2023-05-14T13:16:47;25.50;50.10
46217;DHT22;47258;59.424;13.482;2023-05-14T13:19:26;25.50;50.20
46217;DHT22;47258;59.424;13.482;2023-05-14T13:22:03;25.50;50.10
46217;DHT22;47258;59.424;13.482;2023-05-14T13:24:48;25.50;50.30
46217;DHT22;47258;59.424;13.482;2023-05-14T13:27:50;25.50;50.70
46217;DHT22;47258;59.424;13.482;2023-05-14T13:30:38;25.60;51.10
46217;DHT22;47258;59.424;13.482;2023-05-14T13:33:24;25.50;51.20
46217;DHT22;47258;59.424;13.482;2023-05-14T13:36:18;25.60;51.40
46217;DHT22;47258;59.424;13.482;2023-05-14T13:39:11;25.60;51.40
46217;DHT22;47258;59.424;13.482;2023-05-14T13:42:00;25.60;51.40
46217;DHT22;47258;59.424;13.482;2023-05-14T13:44:41;25.60;51.50
46217;DHT22;47258;59.424;13.482;2023-05-14T13:47:33;25.60;51.60
46217;DHT22;47258;59.424;13.482;2023-05-14T13:50:21;25.60;51.70
46217;DHT22;47258;59.424;13.482;2023-05-14T13:53:04;25.60;51.90
46217;DHT22;47258;59.424;13.482;2023-05-14T13:56:08;25.60;52.10
46217;DHT22;47258;59.424;13.482;2023-05-14T13:59:06;25.60;52.20
46217;DHT22;47258;59.424;13.482;2023-05-14T14:05:14;25.70;52.70
46217;DHT22;47258;59.424;13.482;2023-05-14T14:07:54;25.70;53.00
46217;DHT22;47258;59.424;13.482;2023-05-14T14:10:29;25.70;53.10
46217;DHT22;47258;59.424;13.482;2023-05-14T14:16:23;25.70;53.00
46217;DHT22;47258;59.424;13.482;2023-05-14T14:19:10;25.70;53.10
46217;DHT22;47258;59.424;13.482;2023-05-14T14:21:52;25.70;53.00
46217;DHT22;47258;59.424;13.482;2023-05-14T14:24:39;25.70;52.90
46217;DHT22;47258;59.424;13.482;2023-05-14T14:27:42;25.70;52.90
46217;DHT22;47258;59.424;13.482;2023-05-14T14:30:33;25.70;52.80
46217;DHT22;47258;59.424;13.482;2023-05-14T14:33:15;25.70;52.70
46217;DHT22;47258;59.424;13.482;2023-05-14T14:35:52;25.70;52.50
46217;DHT22;47258;59.424;13.482;2023-05-14T14:38:54;25.70;51.10
46217;DHT22;47258;59.424;13.482;2023-05-14T14:41:52;25.70;50.10
46217;DHT22;47258;59.424;13.482;2023-05-14T14:44:35;25.70;50.10
46217;DHT22;47258;59.424;13.482;2023-05-14T14:47:20;25.70;50.80
46217;DHT22;47258;59.424;13.482;2023-05-14T14:50:31;25.70;50.80
46217;DHT22;47258;59.424;13.482;2023-05-14T14:53:21;25.70;51.20
46217;DHT22;47258;59.424;13.482;2023-05-14T14:56:37;25.70;51.30
46217;DHT22;47258;59.424;13.482;2023-05-14T14:59:54;25.70;51.00
46217;DHT22;47258;59.424;13.482;2023-05-14T15:02:58;25.60;51.00
46217;DHT22;47258;59.424;13.482;2023-05-14T15:06:03;25.60;51.30
46217;DHT22;47258;59.424;13.482;2023-05-14T15:09:03;25.60;51.80
46217;DHT22;47258;59.424;13.482;2023-05-14T15:12:01;25.70;51.70
46217;DHT22;47258;59.424;13.482;2023-05-14T15:14:54;25.70;51.70
46217;DHT22;47258;59.424;13.482;2023-05-14T15:17:40;25.60;51.30
46217;DHT22;47258;59.424;13.482;2023-05-14T15:20:17;25.60;50.60
46217;DHT22;47258;59.424;13.482;2023-05-14T15:23:12;25.60;50.10
46217;DHT22;47258;59.424;13.482;2023-05-14T15:25:52;25.60;50.00
46217;DHT22;47258;59.424;13.482;2023-05-14T15:28:46;25.60;49.80
46217;DHT22;47258;59.424;13.482;2023-05-14T15:31:33;25.60;49.80
46217;DHT22;47258;59.424;13.482;2023-05-14T15:34:25;25.50;49.60
46217;DHT22;47258;59.424;13.482;2023-05-14T15:37:16;25.50;49.60
46217;DHT22;47258;59.424;13.482;2023-05-14T15:40:01;25.60;49.60
46217;DHT22;47258;59.424;13.482;2023-05-14T15:42:59;25.50;49.60
46217;DHT22;47258;59.424;13.482;2023-05-14T15:45:58;25.50;49.50
46217;DHT22;47258;59.424;13.482;2023-05-14T15:48:52;25.50;49.50
46217;DHT22;47258;59.424;13.482;2023-05-14T15:51:44;25.50;49.20
46217;DHT22;47258;59.424;13.482;2023-05-14T15:54:28;25.50;49.10
46217;DHT22;47258;59.424;13.482;2023-05-14T15:57:26;25.50;49.00
46217;DHT22;47258;59.424;13.482;2023-05-14T16:00:24;25.50;48.90
46217;DHT22;47258;59.424;13.482;2023-05-14T16:03:17;25.40;49.40
46217;DHT22;47258;59.424;13.482;2023-05-14T16:06:12;25.50;48.90
46217;DHT22;47258;59.424;13.482;2023-05-14T16:09:00;25.40;48.90
46217;DHT22;47258;59.424;13.482;2023-05-14T16:11:53;25.40;48.90
46217;DHT22;47258;59.424;13.482;2023-05-14T16:14:37;25.40;48.90
46217;DHT22;47258;59.424;13.482;2023-05-14T16:17:22;25.40;48.80
46217;DHT22;47258;59.424;13.482;2023-05-14T16:20:21;25.40;48.80
46217;DHT22;47258;59.424;13.482;2023-05-14T16:22:58;25.40;48.80
46217;DHT22;47258;59.424;13.482;2023-05-14T16:25:40;25.40;48.80
46217;DHT22;47258;59.424;13.482;2023-05-14T16:28:08;25.30;48.70
46217;DHT22;47258;59.424;13.482;2023-05-14T16:30:38;25.40;48.80